sensor_id;sensor_type;location;lat;lon;timestamp;temperature;humidity
546;DHT22;259;53.304;9.816;2023-05-16T00:00:19;19.30;71.40
546;DHT22;259;53.304;9.816;2023-05-16T00:02:45;19.20;71.50
546;DHT22;259;53.304;9.816;2023-05-16T00:05:11;19.20;71.40
546;DHT22;259;53.304;9.816;2023-05-16T00:07:42;19.20;71.40
546;DHT22;259;53.304;9.816;2023-05-16T00:10:10;19.20;71.40
546;DHT22;259;53.304;9.816;2023-05-16T00:12:37;19.20;71.50
546;DHT22;259;53.304;9.816;2023-05-16T00:15:07;19.20;71.40
546;DHT22;259;53.304;9.816;2023-05-16T00:17:37;19.20;71.40
546;DHT22;259;53.304;9.816;2023-05-16T00:20:03;19.20;71.60
546;DHT22;259;53.304;9.816;2023-05-16T00:22:32;19.10;71.40
546;DHT22;259;53.304;9.816;2023-05-16T00:24:58;19.10;71.50
546;DHT22;259;53.304;9.816;2023-05-16T00:27:24;19.10;71.40
546;DHT22;259;53.304;9.816;2023-05-16T00:29:49;19.10;71.30
546;DHT22;259;53.304;9.816;2023-05-16T00:32:15;19.10;71.60
546;DHT22;259;53.304;9.816;2023-05-16T00:34:42;19.00;71.50
546;DHT22;259;53.304;9.816;2023-05-16T00:37:07;19.00;71.20
546;DHT22;259;53.304;9.816;2023-05-16T00:39:33;19.00;71.30
546;DHT22;259;53.304;9.816;2023-05-16T00:41:59;19.00;71.30
546;DHT22;259;53.304;9.816;2023-05-16T00:44:24;19.00;71.30
546;DHT22;259;53.304;9.816;2023-05-16T00:46:50;19.00;71.30
546;DHT22;259;53.304;9.816;2023-05-16T00:49:16;19.00;71.30
546;DHT22;259;53.304;9.816;2023-05-16T00:51:42;18.90;71.30
546;DHT22;259;53.304;9.816;2023-05-16T00:54:09;18.90;71.30
546;DHT22;259;53.304;9.816;2023-05-16T00:56:35;18.90;71.30
546;DHT22;259;53.304;9.816;2023-05-16T00:59:01;18.90;71.70
546;DHT22;259;53.304;9.816;2023-05-16T01:01:28;18.90;71.40
546;DHT22;259;53.304;9.816;2023-05-16T01:03:54;18.90;71.60
546;DHT22;259;53.304;9.816;2023-05-16T01:06:19;18.90;71.50
546;DHT22;259;53.304;9.816;2023-05-16T01:08:45;18.90;71.50
546;DHT22;259;53.304;9.816;2023-05-16T01:11:12;18.80;71.70
546;DHT22;259;53.304;9.816;2023-05-16T01:14:55;18.80;71.40
546;DHT22;259;53.304;9.816;2023-05-16T01:17:55;18.80;72.20
546;DHT22;259;53.304;9.816;2023-05-16T01:20:36;18.80;71.30
546;DHT22;259;53.304;9.816;2023-05-16T01:23:48;18.80;71.50
546;DHT22;259;53.304;9.816;2023-05-16T01:26:26;18.70;71.60
546;DHT22;259;53.304;9.816;2023-05-16T01:28:53;18.70;71.10
546;DHT22;259;53.304;9.816;2023-05-16T01:31:20;18.70;71.40
546;DHT22;259;53.304;9.816;2023-05-16T01:33:46;18.70;71.50
546;DHT22;259;53.304;9.816;2023-05-16T01:36:29;18.70;71.80
546;DHT22;259;53.304;9.816;2023-05-16T01:42:14;18.60;71.80
546;DHT22;259;53.304;9.816;2023-05-16T01:44:42;18.60;71.60
546;DHT22;259;53.304;9.816;2023-05-16T01:47:13;18.60;71.70
546;DHT22;259;53.304;9.816;2023-05-16T01:49:50;18.60;71.80
546;DHT22;259;53.304;9.816;2023-05-16T01:55:28;18.60;71.70
546;DHT22;259;53.304;9.816;2023-05-16T01:58:02;18.60;71.90
546;DHT22;259;53.304;9.816;2023-05-16T02:00:29;18.60;71.70
546;DHT22;259;53.304;9.816;2023-05-16T02:02:56;18.50;71.70
546;DHT22;259;53.304;9.816;2023-05-16T02:05:21;18.50;72.40
546;DHT22;259;53.304;9.816;2023-05-16T02:07:47;18.50;71.60
546;DHT22;259;53.304;9.816;2023-05-16T02:10:13;18.50;71.70
546;DHT22;259;53.304;9.816;2023-05-16T02:12:39;18.50;71.40
546;DHT22;259;53.304;9.816;2023-05-16T02:15:05;18.40;71.70
546;DHT22;259;53.304;9.816;2023-05-16T02:17:31;18.50;71.70
546;DHT22;259;53.304;9.816;2023-05-16T02:19:57;18.50;71.60
546;DHT22;259;53.304;9.816;2023-05-16T02:22:24;18.40;71.50
546;DHT22;259;53.304;9.816;2023-05-16T02:24:49;18.40;71.50
546;DHT22;259;53.304;9.816;2023-05-16T02:27:15;18.40;71.70
546;DHT22;259;53.304;9.816;2023-05-16T02:29:40;18.40;71.70
546;DHT22;259;53.304;9.816;2023-05-16T02:32:06;18.40;71.50
546;DHT22;259;53.304;9.816;2023-05-16T02:34:32;18.30;71.50
546;DHT22;259;53.304;9.816;2023-05-16T02:36:58;18.30;71.40
546;DHT22;259;53.304;9.816;2023-05-16T02:39:23;18.30;71.50
546;DHT22;259;53.304;9.816;2023-05-16T02:41:49;18.30;71.60
546;DHT22;259;53.304;9.816;2023-05-16T02:44:15;18.30;71.50
546;DHT22;259;53.304;9.816;2023-05-16T02:46:40;18.30;71.50
546;DHT22;259;53.304;9.816;2023-05-16T02:49:06;18.30;71.50
546;DHT22;259;53.304;9.816;2023-05-16T02:51:32;18.30;71.60
546;DHT22;259;53.304;9.816;2023-05-16T02:53:58;18.30;71.40
546;DHT22;259;53.304;9.816;2023-05-16T02:56:26;18.20;71.40
546;DHT22;259;53.304;9.816;2023-05-16T02:58:53;18.20;71.50
546;DHT22;259;53.304;9.816;2023-05-16T03:01:19;18.20;71.60
546;DHT22;259;53.304;9.816;2023-05-16T03:03:44;18.20;71.50
546;DHT22;259;53.304;9.816;2023-05-16T03:06:10;18.20;71.50
546;DHT22;259;53.304;9.816;2023-05-16T03:08:36;18.20;71.30
546;DHT22;259;53.304;9.816;2023-05-16T03:11:02;18.20;71.80
546;DHT22;259;53.304;9.816;2023-05-16T03:13:28;18.10;71.70
546;DHT22;259;53.304;9.816;2023-05-16T03:15:54;18.10;71.90
546;DHT22;259;53.304;9.816;2023-05-16T03:18:20;18.10;72.10
546;DHT22;259;53.304;9.816;2023-05-16T03:20:46;18.10;72.20
546;DHT22;259;53.304;9.816;2023-05-16T03:23:12;18.10;72.20
546;DHT22;259;53.304;9.816;2023-05-16T03:25:37;18.10;72.10
546;DHT22;259;53.304;9.816;2023-05-16T03:28:06;18.10;72.10
546;DHT22;259;53.304;9.816;2023-05-16T03:30:33;18.10;72.00
546;DHT22;259;53.304;9.816;2023-05-16T03:32:59;18.10;72.10
546;DHT22;259;53.304;9.816;2023-05-16T03:35:26;18.00;72.00
546;DHT22;259;53.304;9.816;2023-05-16T03:37:57;18.20;72.30
546;DHT22;259;53.304;9.816;2023-05-16T03:40:23;18.00;71.90
546;DHT22;259;53.304;9.816;2023-05-16T03:42:49;18.00;72.00
546;DHT22;259;53.304;9.816;2023-05-16T03:45:15;18.00;71.80
546;DHT22;259;53.304;9.816;2023-05-16T03:47:40;18.00;71.80
546;DHT22;259;53.304;9.816;2023-05-16T03:50:07;18.00;72.00
546;DHT22;259;53.304;9.816;2023-05-16T03:52:34;17.90;71.90
546;DHT22;259;53.304;9.816;2023-05-16T03:55:00;17.90;71.70
546;DHT22;259;53.304;9.816;2023-05-16T03:57:31;17.90;71.70
546;DHT22;259;53.304;9.816;2023-05-16T03:59:57;17.90;71.80
546;DHT22;259;53.304;9.816;2023-05-16T04:02:23;17.90;71.80
546;DHT22;259;53.304;9.816;2023-05-16T04:04:48;17.90;72.50
546;DHT22;259;53.304;9.816;2023-05-16T04:07:14;17.90;71.80
546;DHT22;259;53.304;9.816;2023-05-16T04:09:40;17.90;71.70
546;DHT22;259;53.304;9.816;2023-05-16T04:12:06;17.80;71.70
546;DHT22;259;53.304;9.816;2023-05-16T04:14:32;17.80;71.60
546;DHT22;259;53.304;9.816;2023-05-16T04:16:59;17.80;71.70
546;DHT22;259;53.304;9.816;2023-05-16T04:19:25;17.80;71.60
546;DHT22;259;53.304;9.816;2023-05-16T04:21:50;17.80;71.70
546;DHT22;259;53.304;9.816;2023-05-16T04:24:16;17.80;71.70
546;DHT22;259;53.304;9.816;2023-05-16T04:26:42;17.80;71.80
546;DHT22;259;53.304;9.816;2023-05-16T04:29:08;17.80;71.70
546;DHT22;259;53.304;9.816;2023-05-16T04:31:34;17.80;71.80
546;DHT22;259;53.304;9.816;2023-05-16T04:34:01;17.70;71.60
546;DHT22;259;53.304;9.816;2023-05-16T04:36:27;17.70;71.60
546;DHT22;259;53.304;9.816;2023-05-16T04:38:55;17.70;71.80
546;DHT22;259;53.304;9.816;2023-05-16T04:41:21;17.70;71.50
546;DHT22;259;53.304;9.816;2023-05-16T04:43:49;17.70;71.70
546;DHT22;259;53.304;9.816;2023-05-16T04:46:15;17.70;71.50
546;DHT22;259;53.304;9.816;2023-05-16T04:48:41;17.70;71.50
546;DHT22;259;53.304;9.816;2023-05-16T04:51:07;17.70;71.60
546;DHT22;259;53.304;9.816;2023-05-16T04:53:32;17.60;71.50
546;DHT22;259;53.304;9.816;2023-05-16T04:55:59;17.60;71.40
546;DHT22;259;53.304;9.816;2023-05-16T04:58:25;17.60;71.70
546;DHT22;259;53.304;9.816;2023-05-16T05:00:51;17.60;71.80
546;DHT22;259;53.304;9.816;2023-05-16T05:03:17;17.60;71.90
546;DHT22;259;53.304;9.816;2023-05-16T05:05:42;17.60;72.00
546;DHT22;259;53.304;9.816;2023-05-16T05:08:08;17.60;72.00
546;DHT22;259;53.304;9.816;2023-05-16T05:10:34;17.60;72.00
546;DHT22;259;53.304;9.816;2023-05-16T05:13:00;17.60;71.90
546;DHT22;259;53.304;9.816;2023-05-16T05:15:26;17.60;71.90
546;DHT22;259;53.304;9.816;2023-05-16T05:17:52;17.50;71.70
546;DHT22;259;53.304;9.816;2023-05-16T05:20:18;17.50;71.70
546;DHT22;259;53.304;9.816;2023-05-16T05:22:44;17.50;71.70
546;DHT22;259;53.304;9.816;2023-05-16T05:25:09;17.50;71.80
546;DHT22;259;53.304;9.816;2023-05-16T05:27:35;17.50;71.80
546;DHT22;259;53.304;9.816;2023-05-16T05:30:02;17.50;71.70
546;DHT22;259;53.304;9.816;2023-05-16T05:32:28;17.50;71.80
546;DHT22;259;53.304;9.816;2023-05-16T05:34:54;17.50;71.80
546;DHT22;259;53.304;9.816;2023-05-16T05:37:19;17.50;71.70
546;DHT22;259;53.304;9.816;2023-05-16T05:39:45;17.50;71.50
546;DHT22;259;53.304;9.816;2023-05-16T05:42:11;17.50;71.70
546;DHT22;259;53.304;9.816;2023-05-16T05:44:37;17.50;71.80
546;DHT22;259;53.304;9.816;2023-05-16T05:47:06;17.40;71.70
546;DHT22;259;53.304;9.816;2023-05-16T05:49:32;17.40;71.60
546;DHT22;259;53.304;9.816;2023-05-16T05:51:58;17.40;71.60
546;DHT22;259;53.304;9.816;2023-05-16T05:54:24;17.40;71.80
546;DHT22;259;53.304;9.816;2023-05-16T05:56:50;17.40;71.60
546;DHT22;259;53.304;9.816;2023-05-16T05:59:16;17.40;71.70
546;DHT22;259;53.304;9.816;2023-05-16T06:01:42;17.40;71.60
546;DHT22;259;53.304;9.816;2023-05-16T06:04:10;17.40;71.70
546;DHT22;259;53.304;9.816;2023-05-16T06:06:36;17.30;71.50
546;DHT22;259;53.304;9.816;2023-05-16T06:09:04;17.30;71.30
546;DHT22;259;53.304;9.816;2023-05-16T06:11:30;17.30;71.40
546;DHT22;259;53.304;9.816;2023-05-16T06:13:56;17.30;71.50
546;DHT22;259;53.304;9.816;2023-05-16T06:16:24;17.30;71.20
546;DHT22;259;53.304;9.816;2023-05-16T06:18:50;17.30;71.30
546;DHT22;259;53.304;9.816;2023-05-16T06:21:16;17.30;71.40
546;DHT22;259;53.304;9.816;2023-05-16T06:23:42;17.30;71.30
546;DHT22;259;53.304;9.816;2023-05-16T06:26:07;17.30;71.30
546;DHT22;259;53.304;9.816;2023-05-16T06:28:33;17.30;71.40
546;DHT22;259;53.304;9.816;2023-05-16T06:30:59;17.30;71.30
546;DHT22;259;53.304;9.816;2023-05-16T06:33:24;17.20;71.20
546;DHT22;259;53.304;9.816;2023-05-16T06:35:51;17.30;71.30
546;DHT22;259;53.304;9.816;2023-05-16T06:38:17;17.20;71.10
546;DHT22;259;53.304;9.816;2023-05-16T06:40:46;17.20;71.10
546;DHT22;259;53.304;9.816;2023-05-16T06:43:12;17.20;71.20
546;DHT22;259;53.304;9.816;2023-05-16T06:45:38;17.20;71.20
546;DHT22;259;53.304;9.816;2023-05-16T06:48:05;17.20;71.40
546;DHT22;259;53.304;9.816;2023-05-16T06:50:31;17.20;71.60
546;DHT22;259;53.304;9.816;2023-05-16T06:52:57;17.20;71.70
546;DHT22;259;53.304;9.816;2023-05-16T06:55:23;17.20;71.80
546;DHT22;259;53.304;9.816;2023-05-16T06:57:49;17.20;71.90
546;DHT22;259;53.304;9.816;2023-05-16T07:00:15;17.20;72.00
546;DHT22;259;53.304;9.816;2023-05-16T07:02:41;17.20;71.70
546;DHT22;259;53.304;9.816;2023-05-16T07:05:07;17.20;71.80
546;DHT22;259;53.304;9.816;2023-05-16T07:07:32;17.20;72.00
546;DHT22;259;53.304;9.816;2023-05-16T07:09:59;17.20;72.00
546;DHT22;259;53.304;9.816;2023-05-16T07:12:25;17.10;71.90
546;DHT22;259;53.304;9.816;2023-05-16T07:14:51;17.10;71.80
546;DHT22;259;53.304;9.816;2023-05-16T07:17:16;17.10;71.80
546;DHT22;259;53.304;9.816;2023-05-16T07:19:42;17.10;72.00
546;DHT22;259;53.304;9.816;2023-05-16T07:22:08;17.10;71.70
546;DHT22;259;53.304;9.816;2023-05-16T07:24:33;17.10;71.50
546;DHT22;259;53.304;9.816;2023-05-16T07:27:00;17.10;71.70
546;DHT22;259;53.304;9.816;2023-05-16T07:29:26;17.10;71.70
546;DHT22;259;53.304;9.816;2023-05-16T07:31:52;17.10;71.70
546;DHT22;259;53.304;9.816;2023-05-16T07:34:17;17.10;71.60
546;DHT22;259;53.304;9.816;2023-05-16T07:36:43;17.10;71.60
546;DHT22;259;53.304;9.816;2023-05-16T07:39:09;17.10;71.50
546;DHT22;259;53.304;9.816;2023-05-16T07:41:34;16.90;71.10
546;DHT22;259;53.304;9.816;2023-05-16T07:44:00;17.10;71.40
546;DHT22;259;53.304;9.816;2023-05-16T07:46:26;17.10;71.30
546;DHT22;259;53.304;9.816;2023-05-16T07:48:52;17.10;71.50
546;DHT22;259;53.304;9.816;2023-05-16T07:51:17;17.10;71.40
546;DHT22;259;53.304;9.816;2023-05-16T07:53:43;17.10;71.30
546;DHT22;259;53.304;9.816;2023-05-16T07:56:09;17.10;71.40
546;DHT22;259;53.304;9.816;2023-05-16T07:58:35;17.10;71.50
546;DHT22;259;53.304;9.816;2023-05-16T08:01:01;17.10;71.70
546;DHT22;259;53.304;9.816;2023-05-16T08:03:27;17.10;71.80
546;DHT22;259;53.304;9.816;2023-05-16T08:05:52;17.10;71.50
546;DHT22;259;53.304;9.816;2023-05-16T08:08:18;17.10;71.60
546;DHT22;259;53.304;9.816;2023-05-16T08:10:44;17.10;71.70
546;DHT22;259;53.304;9.816;2023-05-16T08:13:09;17.10;71.80
546;DHT22;259;53.304;9.816;2023-05-16T08:15:35;17.10;71.70
546;DHT22;259;53.304;9.816;2023-05-16T08:18:01;17.10;71.50
546;DHT22;259;53.304;9.816;2023-05-16T08:20:27;17.10;71.40
546;DHT22;259;53.304;9.816;2023-05-16T08:22:53;17.10;71.40
546;DHT22;259;53.304;9.816;2023-05-16T08:25:19;17.10;71.40
546;DHT22;259;53.304;9.816;2023-05-16T08:27:47;17.10;71.50
546;DHT22;259;53.304;9.816;2023-05-16T08:30:13;17.10;71.30
546;DHT22;259;53.304;9.816;2023-05-16T08:32:39;17.10;71.50
546;DHT22;259;53.304;9.816;2023-05-16T08:35:06;17.10;71.50
546;DHT22;259;53.304;9.816;2023-05-16T08:37:31;17.10;71.20
546;DHT22;259;53.304;9.816;2023-05-16T08:39:59;17.10;71.40
546;DHT22;259;53.304;9.816;2023-05-16T08:42:24;17.10;71.40
546;DHT22;259;53.304;9.816;2023-05-16T08:44:51;17.10;71.60
546;DHT22;259;53.304;9.816;2023-05-16T08:47:18;17.00;71.50
546;DHT22;259;53.304;9.816;2023-05-16T08:49:50;17.00;71.80
546;DHT22;259;53.304;9.816;2023-05-16T08:52:20;17.00;71.80
546;DHT22;259;53.304;9.816;2023-05-16T08:54:47;17.00;71.90
546;DHT22;259;53.304;9.816;2023-05-16T08:57:15;17.00;72.10
546;DHT22;259;53.304;9.816;2023-05-16T08:59:41;17.10;71.90
546;DHT22;259;53.304;9.816;2023-05-16T09:02:07;17.10;72.60
546;DHT22;259;53.304;9.816;2023-05-16T09:04:35;17.10;72.40
546;DHT22;259;53.304;9.816;2023-05-16T09:07:01;17.20;72.00
546;DHT22;259;53.304;9.816;2023-05-16T09:09:27;17.30;71.80
546;DHT22;259;53.304;9.816;2023-05-16T09:11:55;17.40;71.20
546;DHT22;259;53.304;9.816;2023-05-16T09:14:21;17.50;70.70
546;DHT22;259;53.304;9.816;2023-05-16T09:17:06;17.60;70.40
546;DHT22;259;53.304;9.816;2023-05-16T09:19:42;17.70;70.10
546;DHT22;259;53.304;9.816;2023-05-16T09:22:12;17.70;70.00
546;DHT22;259;53.304;9.816;2023-05-16T09:24:43;17.70;70.00
546;DHT22;259;53.304;9.816;2023-05-16T09:27:11;17.70;69.80
546;DHT22;259;53.304;9.816;2023-05-16T09:29:41;17.80;69.80
546;DHT22;259;53.304;9.816;2023-05-16T09:32:16;17.80;69.80
546;DHT22;259;53.304;9.816;2023-05-16T09:34:43;17.70;69.70
546;DHT22;259;53.304;9.816;2023-05-16T09:37:10;17.70;69.90
546;DHT22;259;53.304;9.816;2023-05-16T09:39:39;17.70;69.90
546;DHT22;259;53.304;9.816;2023-05-16T09:42:10;17.70;70.10
546;DHT22;259;53.304;9.816;2023-05-16T09:44:37;17.60;70.20
546;DHT22;259;53.304;9.816;2023-05-16T09:47:03;17.50;70.70
546;DHT22;259;53.304;9.816;2023-05-16T09:49:28;17.40;71.00
546;DHT22;259;53.304;9.816;2023-05-16T09:51:55;17.40;71.30
546;DHT22;259;53.304;9.816;2023-05-16T09:54:31;17.30;71.40
546;DHT22;259;53.304;9.816;2023-05-16T09:56:57;17.30;71.50
546;DHT22;259;53.304;9.816;2023-05-16T09:59:23;17.30;71.40
546;DHT22;259;53.304;9.816;2023-05-16T10:01:49;17.30;71.30
546;DHT22;259;53.304;9.816;2023-05-16T10:04:15;17.30;71.50
546;DHT22;259;53.304;9.816;2023-05-16T10:06:41;17.30;71.40
546;DHT22;259;53.304;9.816;2023-05-16T10:09:10;17.30;71.50
546;DHT22;259;53.304;9.816;2023-05-16T10:11:41;17.30;71.50
546;DHT22;259;53.304;9.816;2023-05-16T10:14:08;17.30;71.50
546;DHT22;259;53.304;9.816;2023-05-16T10:16:36;17.30;71.40
546;DHT22;259;53.304;9.816;2023-05-16T10:19:02;17.30;71.50
546;DHT22;259;53.304;9.816;2023-05-16T10:21:31;17.30;71.50
546;DHT22;259;53.304;9.816;2023-05-16T10:23:58;17.40;71.40
546;DHT22;259;53.304;9.816;2023-05-16T10:26:28;17.40;71.50
546;DHT22;259;53.304;9.816;2023-05-16T10:28:55;17.40;71.30
546;DHT22;259;53.304;9.816;2023-05-16T10:31:22;17.40;71.20
546;DHT22;259;53.304;9.816;2023-05-16T10:33:49;17.40;71.10
546;DHT22;259;53.304;9.816;2023-05-16T10:36:15;17.50;70.90
546;DHT22;259;53.304;9.816;2023-05-16T10:38:41;17.50;70.70
546;DHT22;259;53.304;9.816;2023-05-16T10:41:09;17.50;70.80
546;DHT22;259;53.304;9.816;2023-05-16T10:43:35;17.40;70.90
546;DHT22;259;53.304;9.816;2023-05-16T10:46:08;17.40;71.00
546;DHT22;259;53.304;9.816;2023-05-16T10:48:37;17.40;71.10
546;DHT22;259;53.304;9.816;2023-05-16T10:53:52;17.40;71.20
546;DHT22;259;53.304;9.816;2023-05-16T10:56:22;17.40;71.30
546;DHT22;259;53.304;9.816;2023-05-16T10:58:49;17.40;71.40
546;DHT22;259;53.304;9.816;2023-05-16T11:01:29;17.40;71.30
546;DHT22;259;53.304;9.816;2023-05-16T11:06:30;17.50;71.10
546;DHT22;259;53.304;9.816;2023-05-16T11:11:54;17.50;71.20
546;DHT22;259;53.304;9.816;2023-05-16T11:17:10;17.60;71.20
546;DHT22;259;53.304;9.816;2023-05-16T11:19:52;17.60;71.10
546;DHT22;259;53.304;9.816;2023-05-16T11:22:22;17.60;71.20
546;DHT22;259;53.304;9.816;2023-05-16T11:25:04;17.60;71.10
546;DHT22;259;53.304;9.816;2023-05-16T11:27:32;17.60;71.30
546;DHT22;259;53.304;9.816;2023-05-16T11:30:13;17.60;71.50
546;DHT22;259;53.304;9.816;2023-05-16T11:32:41;17.50;71.50
546;DHT22;259;53.304;9.816;2023-05-16T11:35:10;17.50;71.50
546;DHT22;259;53.304;9.816;2023-05-16T11:37:37;17.50;71.60
546;DHT22;259;53.304;9.816;2023-05-16T11:40:07;17.50;71.70
546;DHT22;259;53.304;9.816;2023-05-16T11:42:38;17.50;71.70
546;DHT22;259;53.304;9.816;2023-05-16T11:45:15;17.60;72.00
546;DHT22;259;53.304;9.816;2023-05-16T11:47:45;17.60;71.50
546;DHT22;259;53.304;9.816;2023-05-16T11:50:20;17.60;71.50
546;DHT22;259;53.304;9.816;2023-05-16T11:52:50;17.60;71.50
546;DHT22;259;53.304;9.816;2023-05-16T11:55:25;17.60;71.80
546;DHT22;259;53.304;9.816;2023-05-16T11:57:52;17.60;71.70
546;DHT22;259;53.304;9.816;2023-05-16T12:00:22;17.50;71.70
546;DHT22;259;53.304;9.816;2023-05-16T12:02:51;17.50;71.90
546;DHT22;259;53.304;9.816;2023-05-16T12:05:19;17.50;71.90
546;DHT22;259;53.304;9.816;2023-05-16T12:07:49;17.50;72.20
546;DHT22;259;53.304;9.816;2023-05-16T12:10:15;17.50;72.10
546;DHT22;259;53.304;9.816;2023-05-16T12:12:44;17.50;72.00
546;DHT22;259;53.304;9.816;2023-05-16T12:15:13;17.50;72.10
546;DHT22;259;53.304;9.816;2023-05-16T12:17:39;17.50;72.00
546;DHT22;259;53.304;9.816;2023-05-16T12:20:07;17.50;72.00
546;DHT22;259;53.304;9.816;2023-05-16T12:22:45;17.50;72.00
546;DHT22;259;53.304;9.816;2023-05-16T12:25:28;17.50;72.00
546;DHT22;259;53.304;9.816;2023-05-16T12:28:00;17.50;72.00
546;DHT22;259;53.304;9.816;2023-05-16T12:30:28;17.50;71.90
546;DHT22;259;53.304;9.816;2023-05-16T12:33:02;17.50;71.90
546;DHT22;259;53.304;9.816;2023-05-16T12:35:34;17.50;71.90
546;DHT22;259;53.304;9.816;2023-05-16T12:38:08;17.60;72.00
546;DHT22;259;53.304;9.816;2023-05-16T12:40:39;17.60;72.00
546;DHT22;259;53.304;9.816;2023-05-16T12:43:20;17.70;72.00
546;DHT22;259;53.304;9.816;2023-05-16T12:45:51;17.70;71.90
546;DHT22;259;53.304;9.816;2023-05-16T12:48:17;17.80;71.80
546;DHT22;259;53.304;9.816;2023-05-16T12:50:43;17.80;71.80
546;DHT22;259;53.304;9.816;2023-05-16T12:53:14;17.70;71.60
546;DHT22;259;53.304;9.816;2023-05-16T12:55:42;17.80;71.70
546;DHT22;259;53.304;9.816;2023-05-16T12:58:09;17.80;71.70
546;DHT22;259;53.304;9.816;2023-05-16T13:00:35;17.70;71.50
546;DHT22;259;53.304;9.816;2023-05-16T13:03:02;17.70;71.60
546;DHT22;259;53.304;9.816;2023-05-16T13:05:28;17.70;71.60
546;DHT22;259;53.304;9.816;2023-05-16T13:07:54;17.70;71.50
546;DHT22;259;53.304;9.816;2023-05-16T13:10:20;17.70;71.50
546;DHT22;259;53.304;9.816;2023-05-16T13:12:46;17.80;71.60
546;DHT22;259;53.304;9.816;2023-05-16T13:15:12;17.80;71.60
546;DHT22;259;53.304;9.816;2023-05-16T13:17:39;17.80;71.70
546;DHT22;259;53.304;9.816;2023-05-16T13:20:06;17.90;71.70
546;DHT22;259;53.304;9.816;2023-05-16T13:22:34;17.90;71.60
546;DHT22;259;53.304;9.816;2023-05-16T13:25:01;17.90;71.50
546;DHT22;259;53.304;9.816;2023-05-16T13:27:29;18.00;71.50
546;DHT22;259;53.304;9.816;2023-05-16T13:29:55;18.00;71.50
546;DHT22;259;53.304;9.816;2023-05-16T13:32:21;18.00;71.30
546;DHT22;259;53.304;9.816;2023-05-16T13:34:46;18.00;71.30
546;DHT22;259;53.304;9.816;2023-05-16T13:37:12;18.00;71.30
546;DHT22;259;53.304;9.816;2023-05-16T13:39:38;18.00;71.30
546;DHT22;259;53.304;9.816;2023-05-16T13:42:04;18.00;71.40
546;DHT22;259;53.304;9.816;2023-05-16T13:44:29;18.00;71.40
546;DHT22;259;53.304;9.816;2023-05-16T13:46:55;18.10;71.60
546;DHT22;259;53.304;9.816;2023-05-16T13:49:22;18.10;71.50
546;DHT22;259;53.304;9.816;2023-05-16T13:51:48;18.10;71.40
546;DHT22;259;53.304;9.816;2023-05-16T13:54:14;18.10;71.40
546;DHT22;259;53.304;9.816;2023-05-16T13:56:39;18.10;71.40
546;DHT22;259;53.304;9.816;2023-05-16T13:59:05;18.10;71.40
546;DHT22;259;53.304;9.816;2023-05-16T14:01:31;18.20;71.50
546;DHT22;259;53.304;9.816;2023-05-16T14:03:56;18.10;71.30
546;DHT22;259;53.304;9.816;2023-05-16T14:06:22;18.20;71.50
546;DHT22;259;53.304;9.816;2023-05-16T14:08:48;18.20;71.50
546;DHT22;259;53.304;9.816;2023-05-16T14:11:14;18.10;71.40
546;DHT22;259;53.304;9.816;2023-05-16T14:13:39;18.10;71.40
546;DHT22;259;53.304;9.816;2023-05-16T14:16:05;18.10;71.50
546;DHT22;259;53.304;9.816;2023-05-16T14:18:31;18.10;72.30
546;DHT22;259;53.304;9.816;2023-05-16T14:20:57;18.10;71.60
546;DHT22;259;53.304;9.816;2023-05-16T14:23:23;18.00;71.50
546;DHT22;259;53.304;9.816;2023-05-16T14:25:49;18.00;71.50
546;DHT22;259;53.304;9.816;2023-05-16T14:28:15;18.00;71.50
546;DHT22;259;53.304;9.816;2023-05-16T14:30:41;18.00;71.60
546;DHT22;259;53.304;9.816;2023-05-16T14:33:06;18.00;71.70
546;DHT22;259;53.304;9.816;2023-05-16T14:35:32;18.00;71.70
546;DHT22;259;53.304;9.816;2023-05-16T14:37:58;18.00;71.70
546;DHT22;259;53.304;9.816;2023-05-16T14:40:24;18.00;71.70
546;DHT22;259;53.304;9.816;2023-05-16T14:42:49;18.00;71.70
546;DHT22;259;53.304;9.816;2023-05-16T14:45:16;18.00;71.70
546;DHT22;259;53.304;9.816;2023-05-16T14:47:41;18.10;71.80
546;DHT22;259;53.304;9.816;2023-05-16T14:50:08;18.20;71.90
546;DHT22;259;53.304;9.816;2023-05-16T14:52:36;18.20;72.00
546;DHT22;259;53.304;9.816;2023-05-16T14:55:03;18.50;72.30
546;DHT22;259;53.304;9.816;2023-05-16T14:57:29;18.30;72.00
546;DHT22;259;53.304;9.816;2023-05-16T14:59:54;18.40;71.90
546;DHT22;259;53.304;9.816;2023-05-16T15:02:20;18.50;72.00
546;DHT22;259;53.304;9.816;2023-05-16T15:04:46;18.50;71.90
546;DHT22;259;53.304;9.816;2023-05-16T15:07:12;18.50;71.70
546;DHT22;259;53.304;9.816;2023-05-16T15:09:37;18.60;71.60
546;DHT22;259;53.304;9.816;2023-05-16T15:12:04;18.50;71.40
546;DHT22;259;53.304;9.816;2023-05-16T15:14:30;18.60;71.40
546;DHT22;259;53.304;9.816;2023-05-16T15:16:56;18.50;71.40
546;DHT22;259;53.304;9.816;2023-05-16T15:19:21;18.50;71.40
546;DHT22;259;53.304;9.816;2023-05-16T15:21:47;18.50;71.30
546;DHT22;259;53.304;9.816;2023-05-16T15:24:12;18.50;71.40
546;DHT22;259;53.304;9.816;2023-05-16T15:26:39;18.50;71.40
546;DHT22;259;53.304;9.816;2023-05-16T15:29:05;18.40;71.30
546;DHT22;259;53.304;9.816;2023-05-16T15:31:31;18.40;72.10
546;DHT22;259;53.304;9.816;2023-05-16T15:33:57;18.40;71.40
546;DHT22;259;53.304;9.816;2023-05-16T15:36:23;18.40;71.40
546;DHT22;259;53.304;9.816;2023-05-16T15:38:49;18.30;71.30
546;DHT22;259;53.304;9.816;2023-05-16T15:41:14;18.30;71.30
546;DHT22;259;53.304;9.816;2023-05-16T15:43:40;18.30;71.30
546;DHT22;259;53.304;9.816;2023-05-16T15:46:09;18.30;71.20
546;DHT22;259;53.304;9.816;2023-05-16T15:48:37;18.30;71.30
546;DHT22;259;53.304;9.816;2023-05-16T15:51:08;18.30;71.20
546;DHT22;259;53.304;9.816;2023-05-16T15:53:34;18.30;71.30
546;DHT22;259;53.304;9.816;2023-05-16T15:55:59;18.20;71.20
546;DHT22;259;53.304;9.816;2023-05-16T15:58:25;18.20;71.20
546;DHT22;259;53.304;9.816;2023-05-16T16:00:51;18.20;71.30
546;DHT22;259;53.304;9.816;2023-05-16T16:03:18;18.20;71.30
546;DHT22;259;53.304;9.816;2023-05-16T16:05:44;18.20;71.30
546;DHT22;259;53.304;9.816;2023-05-16T16:08:10;18.20;71.30
546;DHT22;259;53.304;9.816;2023-05-16T16:10:35;18.20;71.30
546;DHT22;259;53.304;9.816;2023-05-16T16:13:02;18.20;71.30
546;DHT22;259;53.304;9.816;2023-05-16T16:15:29;18.20;71.30
546;DHT22;259;53.304;9.816;2023-05-16T16:17:56;18.10;71.30
546;DHT22;259;53.304;9.816;2023-05-16T16:20:22;18.10;71.30
546;DHT22;259;53.304;9.816;2023-05-16T16:22:48;18.10;71.30
546;DHT22;259;53.304;9.816;2023-05-16T16:25:14;18.10;71.30
546;DHT22;259;53.304;9.816;2023-05-16T16:27:40;18.10;71.40
546;DHT22;259;53.304;9.816;2023-05-16T16:30:07;18.10;71.50
546;DHT22;259;53.304;9.816;2023-05-16T16:32:33;18.10;71.50
546;DHT22;259;53.304;9.816;2023-05-16T16:34:59;18.00;71.40
546;DHT22;259;53.304;9.816;2023-05-16T16:37:26;18.00;71.50
546;DHT22;259;53.304;9.816;2023-05-16T16:39:52;18.00;71.50
546;DHT22;259;53.304;9.816;2023-05-16T16:42:17;18.00;71.40
546;DHT22;259;53.304;9.816;2023-05-16T16:44:43;18.00;71.40
546;DHT22;259;53.304;9.816;2023-05-16T16:47:09;18.00;71.50
546;DHT22;259;53.304;9.816;2023-05-16T16:49:34;18.00;71.40
546;DHT22;259;53.304;9.816;2023-05-16T16:52:00;18.00;71.30